sensor_id;sensor_type;location;lat;lon;timestamp;P1;durP1;ratioP1;P2;durP2;ratioP2
15132;SDS011;7667;51.232;17.110;2023-07-20T00:02:13;2.00;;;1.80;;
15132;SDS011;7667;51.232;17.110;2023-07-20T00:04:41;3.87;;;2.17;;
15132;SDS011;7667;51.232;17.110;2023-07-20T00:07:08;2.70;;;1.93;;
15132;SDS011;7667;51.232;17.110;2023-07-20T00:09:36;2.60;;;2.00;;
15132;SDS011;7667;51.232;17.110;2023-07-20T00:12:03;3.83;;;2.20;;
15132;SDS011;7667;51.232;17.110;2023-07-20T00:14:31;4.03;;;2.20;;
15132;SDS011;7667;51.232;17.110;2023-07-20T00:16:59;3.17;;;2.10;;
15132;SDS011;7667;51.232;17.110;2023-07-20T00:19:27;2.53;;;1.97;;
15132;SDS011;7667;51.232;17.110;2023-07-20T00:21:55;3.73;;;2.20;;
15132;SDS011;7667;51.232;17.110;2023-07-20T00:24:23;3.93;;;2.20;;
15132;SDS011;7667;51.232;17.110;2023-07-20T00:26:50;3.50;;;2.10;;
15132;SDS011;7667;51.232;17.110;2023-07-20T00:29:18;3.30;;;2.30;;
15132;SDS011;7667;51.232;17.110;2023-07-20T00:31:46;2.40;;;2.20;;
15132;SDS011;7667;51.232;17.110;2023-07-20T00:34:17;2.83;;;2.50;;
15132;SDS011;7667;51.232;17.110;2023-07-20T00:36:44;2.83;;;2.40;;
15132;SDS011;7667;51.232;17.110;2023-07-20T00:39:12;3.00;;;2.60;;
15132;SDS011;7667;51.232;17.110;2023-07-20T00:41:39;5.07;;;2.83;;
15132;SDS011;7667;51.232;17.110;2023-07-20T00:44:08;5.70;;;2.87;;
15132;SDS011;7667;51.232;17.110;2023-07-20T00:46:35;3.43;;;2.50;;
15132;SDS011;7667;51.232;17.110;2023-07-20T00:49:03;3.90;;;2.70;;
15132;SDS011;7667;51.232;17.110;2023-07-20T00:51:32;4.00;;;2.40;;
15132;SDS011;7667;51.232;17.110;2023-07-20T00:54:00;3.47;;;2.30;;
15132;SDS011;7667;51.232;17.110;2023-07-20T00:56:28;4.47;;;2.50;;
15132;SDS011;7667;51.232;17.110;2023-07-20T00:58:55;3.50;;;2.50;;
15132;SDS011;7667;51.232;17.110;2023-07-20T01:01:24;3.43;;;2.70;;
15132;SDS011;7667;51.232;17.110;2023-07-20T01:03:52;2.63;;;2.40;;
15132;SDS011;7667;51.232;17.110;2023-07-20T01:09:19;3.77;;;2.60;;
15132;SDS011;7667;51.232;17.110;2023-07-20T01:12:33;3.00;;;2.57;;
15132;SDS011;7667;51.232;17.110;2023-07-20T01:15:09;3.30;;;2.20;;
15132;SDS011;7667;51.232;17.110;2023-07-20T01:17:37;4.27;;;2.30;;
15132;SDS011;7667;51.232;17.110;2023-07-20T01:20:06;3.03;;;2.50;;
15132;SDS011;7667;51.232;17.110;2023-07-20T01:22:45;4.57;;;2.67;;
15132;SDS011;7667;51.232;17.110;2023-07-20T01:29:02;3.50;;;2.30;;
15132;SDS011;7667;51.232;17.110;2023-07-20T01:31:45;2.97;;;2.50;;
15132;SDS011;7667;51.232;17.110;2023-07-20T01:34:17;4.33;;;2.77;;
15132;SDS011;7667;51.232;17.110;2023-07-20T01:36:46;5.00;;;2.50;;
15132;SDS011;7667;51.232;17.110;2023-07-20T01:39:17;2.90;;;2.53;;
15132;SDS011;7667;51.232;17.110;2023-07-20T01:41:47;3.70;;;2.67;;
15132;SDS011;7667;51.232;17.110;2023-07-20T01:44:15;3.80;;;2.60;;
15132;SDS011;7667;51.232;17.110;2023-07-20T01:46:42;3.90;;;2.70;;
15132;SDS011;7667;51.232;17.110;2023-07-20T01:49:10;2.90;;;2.60;;
15132;SDS011;7667;51.232;17.110;2023-07-20T01:51:38;3.30;;;2.80;;
15132;SDS011;7667;51.232;17.110;2023-07-20T01:54:05;3.60;;;2.70;;
15132;SDS011;7667;51.232;17.110;2023-07-20T01:56:33;4.90;;;2.63;;
15132;SDS011;7667;51.232;17.110;2023-07-20T01:59:01;3.60;;;2.90;;
15132;SDS011;7667;51.232;17.110;2023-07-20T02:01:28;5.73;;;2.87;;
15132;SDS011;7667;51.232;17.110;2023-07-20T02:03:56;5.50;;;3.20;;
15132;SDS011;7667;51.232;17.110;2023-07-20T02:06:23;5.03;;;2.93;;
15132;SDS011;7667;51.232;17.110;2023-07-20T02:08:51;6.40;;;2.80;;
15132;SDS011;7667;51.232;17.110;2023-07-20T02:11:19;4.37;;;3.07;;
15132;SDS011;7667;51.232;17.110;2023-07-20T02:13:47;3.03;;;2.50;;
15132;SDS011;7667;51.232;17.110;2023-07-20T02:16:14;3.27;;;2.70;;
15132;SDS011;7667;51.232;17.110;2023-07-20T02:18:42;4.57;;;2.87;;
15132;SDS011;7667;51.232;17.110;2023-07-20T02:21:10;3.97;;;2.60;;
15132;SDS011;7667;51.232;17.110;2023-07-20T02:23:37;3.97;;;2.90;;
15132;SDS011;7667;51.232;17.110;2023-07-20T02:26:05;4.33;;;2.73;;
15132;SDS011;7667;51.232;17.110;2023-07-20T02:28:32;3.70;;;2.73;;
15132;SDS011;7667;51.232;17.110;2023-07-20T02:31:00;3.00;;;2.70;;
15132;SDS011;7667;51.232;17.110;2023-07-20T02:33:27;3.50;;;2.67;;
15132;SDS011;7667;51.232;17.110;2023-07-20T02:35:55;4.00;;;2.70;;
15132;SDS011;7667;51.232;17.110;2023-07-20T02:38:23;4.77;;;2.93;;
15132;SDS011;7667;51.232;17.110;2023-07-20T02:40:51;2.90;;;2.63;;
15132;SDS011;7667;51.232;17.110;2023-07-20T02:43:18;3.17;;;2.87;;
15132;SDS011;7667;51.232;17.110;2023-07-20T02:45:46;3.57;;;2.90;;
15132;SDS011;7667;51.232;17.110;2023-07-20T02:48:13;4.43;;;2.73;;
15132;SDS011;7667;51.232;17.110;2023-07-20T02:50:41;5.20;;;2.97;;
15132;SDS011;7667;51.232;17.110;2023-07-20T02:53:10;3.17;;;2.77;;
15132;SDS011;7667;51.232;17.110;2023-07-20T02:55:38;4.37;;;2.70;;
15132;SDS011;7667;51.232;17.110;2023-07-20T02:58:06;5.97;;;3.33;;
15132;SDS011;7667;51.232;17.110;2023-07-20T03:00:33;4.47;;;2.97;;
15132;SDS011;7667;51.232;17.110;2023-07-20T03:03:01;5.20;;;2.67;;
15132;SDS011;7667;51.232;17.110;2023-07-20T03:05:29;5.13;;;3.03;;
15132;SDS011;7667;51.232;17.110;2023-07-20T03:07:56;3.57;;;3.00;;
15132;SDS011;7667;51.232;17.110;2023-07-20T03:10:29;4.70;;;3.27;;
15132;SDS011;7667;51.232;17.110;2023-07-20T03:12:57;3.27;;;2.80;;
15132;SDS011;7667;51.232;17.110;2023-07-20T03:15:25;3.20;;;2.80;;
15132;SDS011;7667;51.232;17.110;2023-07-20T03:17:53;3.70;;;2.90;;
15132;SDS011;7667;51.232;17.110;2023-07-20T03:20:20;3.40;;;3.10;;
15132;SDS011;7667;51.232;17.110;2023-07-20T03:22:48;3.07;;;2.77;;
15132;SDS011;7667;51.232;17.110;2023-07-20T03:25:15;4.10;;;2.90;;
15132;SDS011;7667;51.232;17.110;2023-07-20T03:27:44;3.20;;;2.90;;
15132;SDS011;7667;51.232;17.110;2023-07-20T03:30:11;3.10;;;2.80;;
15132;SDS011;7667;51.232;17.110;2023-07-20T03:32:39;4.43;;;3.20;;
15132;SDS011;7667;51.232;17.110;2023-07-20T03:35:07;5.73;;;3.57;;
15132;SDS011;7667;51.232;17.110;2023-07-20T03:37:35;4.00;;;3.20;;
15132;SDS011;7667;51.232;17.110;2023-07-20T03:40:03;3.60;;;3.10;;
15132;SDS011;7667;51.232;17.110;2023-07-20T03:42:34;5.07;;;3.07;;
15132;SDS011;7667;51.232;17.110;2023-07-20T03:45:01;3.37;;;3.07;;
15132;SDS011;7667;51.232;17.110;2023-07-20T03:47:29;4.23;;;3.20;;
15132;SDS011;7667;51.232;17.110;2023-07-20T03:49:57;3.63;;;3.27;;
15132;SDS011;7667;51.232;17.110;2023-07-20T03:52:25;3.93;;;3.50;;
15132;SDS011;7667;51.232;17.110;2023-07-20T03:54:52;4.57;;;3.40;;
15132;SDS011;7667;51.232;17.110;2023-07-20T03:57:20;6.17;;;3.53;;
15132;SDS011;7667;51.232;17.110;2023-07-20T03:59:47;3.80;;;3.23;;
15132;SDS011;7667;51.232;17.110;2023-07-20T04:02:15;4.17;;;3.77;;
15132;SDS011;7667;51.232;17.110;2023-07-20T04:04:42;3.70;;;3.30;;
15132;SDS011;7667;51.232;17.110;2023-07-20T04:07:10;3.47;;;3.13;;
15132;SDS011;7667;51.232;17.110;2023-07-20T04:09:38;4.57;;;3.60;;
15132;SDS011;7667;51.232;17.110;2023-07-20T04:12:06;3.83;;;3.43;;
15132;SDS011;7667;51.232;17.110;2023-07-20T04:14:34;3.83;;;3.50;;
15132;SDS011;7667;51.232;17.110;2023-07-20T04:17:02;4.40;;;3.67;;
15132;SDS011;7667;51.232;17.110;2023-07-20T04:19:30;5.57;;;3.57;;
15132;SDS011;7667;51.232;17.110;2023-07-20T04:21:57;3.73;;;3.33;;
15132;SDS011;7667;51.232;17.110;2023-07-20T04:24:25;3.33;;;3.03;;
15132;SDS011;7667;51.232;17.110;2023-07-20T04:26:52;4.63;;;3.77;;
15132;SDS011;7667;51.232;17.110;2023-07-20T04:29:20;4.87;;;3.93;;
15132;SDS011;7667;51.232;17.110;2023-07-20T04:31:48;4.17;;;3.77;;
15132;SDS011;7667;51.232;17.110;2023-07-20T04:34:15;5.83;;;3.80;;
15132;SDS011;7667;51.232;17.110;2023-07-20T04:36:43;4.30;;;3.87;;
15132;SDS011;7667;51.232;17.110;2023-07-20T04:39:12;4.17;;;3.37;;
15132;SDS011;7667;51.232;17.110;2023-07-20T04:41:57;4.90;;;3.90;;
15132;SDS011;7667;51.232;17.110;2023-07-20T04:44:24;5.03;;;3.83;;
15132;SDS011;7667;51.232;17.110;2023-07-20T04:46:52;5.57;;;3.90;;
15132;SDS011;7667;51.232;17.110;2023-07-20T04:49:20;5.37;;;3.80;;
15132;SDS011;7667;51.232;17.110;2023-07-20T04:51:48;4.20;;;3.47;;
15132;SDS011;7667;51.232;17.110;2023-07-20T04:54:15;4.70;;;3.93;;
15132;SDS011;7667;51.232;17.110;2023-07-20T04:56:43;4.90;;;4.40;;
15132;SDS011;7667;51.232;17.110;2023-07-20T04:59:12;5.67;;;4.30;;
15132;SDS011;7667;51.232;17.110;2023-07-20T05:01:40;4.50;;;4.10;;
15132;SDS011;7667;51.232;17.110;2023-07-20T05:04:08;6.23;;;4.23;;
15132;SDS011;7667;51.232;17.110;2023-07-20T05:06:36;4.43;;;3.87;;
15132;SDS011;7667;51.232;17.110;2023-07-20T05:09:05;6.87;;;4.40;;
15132;SDS011;7667;51.232;17.110;2023-07-20T05:11:33;4.70;;;4.30;;
15132;SDS011;7667;51.232;17.110;2023-07-20T05:14:01;4.30;;;3.90;;
15132;SDS011;7667;51.232;17.110;2023-07-20T05:16:28;5.53;;;4.10;;
15132;SDS011;7667;51.232;17.110;2023-07-20T05:18:56;5.27;;;4.37;;
15132;SDS011;7667;51.232;17.110;2023-07-20T05:21:24;4.90;;;4.47;;
15132;SDS011;7667;51.232;17.110;2023-07-20T05:23:52;5.83;;;4.60;;
15132;SDS011;7667;51.232;17.110;2023-07-20T05:26:19;5.57;;;4.20;;
15132;SDS011;7667;51.232;17.110;2023-07-20T05:28:47;5.80;;;4.33;;
15132;SDS011;7667;51.232;17.110;2023-07-20T05:31:15;5.43;;;4.63;;
15132;SDS011;7667;51.232;17.110;2023-07-20T05:33:42;6.60;;;4.60;;
15132;SDS011;7667;51.232;17.110;2023-07-20T05:36:10;4.87;;;4.37;;
15132;SDS011;7667;51.232;17.110;2023-07-20T05:38:37;5.93;;;4.67;;
15132;SDS011;7667;51.232;17.110;2023-07-20T05:41:05;5.97;;;4.27;;
15132;SDS011;7667;51.232;17.110;2023-07-20T05:43:34;5.57;;;4.97;;
15132;SDS011;7667;51.232;17.110;2023-07-20T05:46:01;5.53;;;4.50;;
15132;SDS011;7667;51.232;17.110;2023-07-20T05:48:29;5.20;;;4.70;;
15132;SDS011;7667;51.232;17.110;2023-07-20T05:50:56;8.27;;;4.93;;
15132;SDS011;7667;51.232;17.110;2023-07-20T05:53:24;5.30;;;4.80;;
15132;SDS011;7667;51.232;17.110;2023-07-20T05:55:54;5.37;;;4.87;;
15132;SDS011;7667;51.232;17.110;2023-07-20T05:58:22;5.30;;;4.80;;
15132;SDS011;7667;51.232;17.110;2023-07-20T06:00:51;5.50;;;4.63;;
15132;SDS011;7667;51.232;17.110;2023-07-20T06:03:18;5.70;;;4.60;;
15132;SDS011;7667;51.232;17.110;2023-07-20T06:05:48;7.10;;;4.73;;
15132;SDS011;7667;51.232;17.110;2023-07-20T06:08:16;5.57;;;4.83;;
15132;SDS011;7667;51.232;17.110;2023-07-20T06:10:43;4.93;;;4.43;;
15132;SDS011;7667;51.232;17.110;2023-07-20T06:13:11;6.53;;;5.07;;
15132;SDS011;7667;51.232;17.110;2023-07-20T06:15:39;5.97;;;5.00;;
15132;SDS011;7667;51.232;17.110;2023-07-20T06:18:08;6.27;;;4.30;;
15132;SDS011;7667;51.232;17.110;2023-07-20T06:20:35;5.43;;;4.70;;
15132;SDS011;7667;51.232;17.110;2023-07-20T06:23:03;5.17;;;4.67;;
15132;SDS011;7667;51.232;17.110;2023-07-20T06:25:31;7.53;;;4.80;;
15132;SDS011;7667;51.232;17.110;2023-07-20T06:27:58;5.37;;;4.87;;
15132;SDS011;7667;51.232;17.110;2023-07-20T06:30:26;6.23;;;5.00;;
15132;SDS011;7667;51.232;17.110;2023-07-20T06:32:53;5.40;;;4.73;;
15132;SDS011;7667;51.232;17.110;2023-07-20T06:35:21;4.90;;;4.40;;
15132;SDS011;7667;51.232;17.110;2023-07-20T06:37:49;6.43;;;4.43;;
15132;SDS011;7667;51.232;17.110;2023-07-20T06:40:16;6.77;;;4.80;;
15132;SDS011;7667;51.232;17.110;2023-07-20T06:42:47;4.90;;;4.20;;
15132;SDS011;7667;51.232;17.110;2023-07-20T06:45:17;5.10;;;4.40;;
15132;SDS011;7667;51.232;17.110;2023-07-20T06:47:45;4.50;;;4.10;;
15132;SDS011;7667;51.232;17.110;2023-07-20T06:50:13;4.67;;;4.03;;
15132;SDS011;7667;51.232;17.110;2023-07-20T06:52:43;4.90;;;3.60;;
15132;SDS011;7667;51.232;17.110;2023-07-20T06:55:13;5.87;;;4.47;;
15132;SDS011;7667;51.232;17.110;2023-07-20T06:57:41;5.10;;;3.67;;
15132;SDS011;7667;51.232;17.110;2023-07-20T07:00:14;5.37;;;4.20;;
15132;SDS011;7667;51.232;17.110;2023-07-20T07:02:42;5.30;;;4.17;;
15132;SDS011;7667;51.232;17.110;2023-07-20T07:05:13;7.10;;;4.50;;
15132;SDS011;7667;51.232;17.110;2023-07-20T07:07:46;5.83;;;4.33;;
15132;SDS011;7667;51.232;17.110;2023-07-20T07:10:15;4.90;;;4.23;;
15132;SDS011;7667;51.232;17.110;2023-07-20T07:12:43;4.97;;;4.10;;
15132;SDS011;7667;51.232;17.110;2023-07-20T07:15:11;5.37;;;4.37;;
15132;SDS011;7667;51.232;17.110;2023-07-20T07:17:38;5.67;;;4.23;;
15132;SDS011;7667;51.232;17.110;2023-07-20T07:20:06;4.37;;;3.97;;
15132;SDS011;7667;51.232;17.110;2023-07-20T07:22:46;4.23;;;3.70;;
15132;SDS011;7667;51.232;17.110;2023-07-20T07:25:19;3.90;;;3.50;;
15132;SDS011;7667;51.232;17.110;2023-07-20T07:27:49;4.13;;;3.60;;
15132;SDS011;7667;51.232;17.110;2023-07-20T07:30:19;5.83;;;3.90;;
15132;SDS011;7667;51.232;17.110;2023-07-20T07:32:48;4.77;;;3.73;;
15132;SDS011;7667;51.232;17.110;2023-07-20T07:35:16;7.40;;;5.00;;
15132;SDS011;7667;51.232;17.110;2023-07-20T07:37:43;4.80;;;4.30;;
15132;SDS011;7667;51.232;17.110;2023-07-20T07:40:32;4.53;;;3.77;;
15132;SDS011;7667;51.232;17.110;2023-07-20T07:43:00;5.67;;;3.87;;
15132;SDS011;7667;51.232;17.110;2023-07-20T07:45:27;6.97;;;4.47;;
15132;SDS011;7667;51.232;17.110;2023-07-20T07:47:55;3.77;;;3.47;;
15132;SDS011;7667;51.232;17.110;2023-07-20T07:50:23;4.87;;;3.50;;
15132;SDS011;7667;51.232;17.110;2023-07-20T07:52:51;4.37;;;3.63;;
15132;SDS011;7667;51.232;17.110;2023-07-20T07:55:18;3.40;;;3.10;;
15132;SDS011;7667;51.232;17.110;2023-07-20T07:57:46;4.57;;;3.73;;
15132;SDS011;7667;51.232;17.110;2023-07-20T08:00:14;5.20;;;3.60;;
15132;SDS011;7667;51.232;17.110;2023-07-20T08:02:45;4.00;;;3.70;;
15132;SDS011;7667;51.232;17.110;2023-07-20T08:05:15;3.97;;;3.37;;
15132;SDS011;7667;51.232;17.110;2023-07-20T08:07:43;3.53;;;3.20;;
15132;SDS011;7667;51.232;17.110;2023-07-20T08:10:12;3.90;;;3.37;;
15132;SDS011;7667;51.232;17.110;2023-07-20T08:12:39;3.63;;;3.33;;
15132;SDS011;7667;51.232;17.110;2023-07-20T08:15:07;3.80;;;3.40;;
15132;SDS011;7667;51.232;17.110;2023-07-20T08:17:38;4.90;;;3.73;;
15132;SDS011;7667;51.232;17.110;2023-07-20T08:20:06;3.80;;;3.50;;
15132;SDS011;7667;51.232;17.110;2023-07-20T08:22:38;5.27;;;3.30;;
15132;SDS011;7667;51.232;17.110;2023-07-20T08:25:07;5.37;;;3.30;;
15132;SDS011;7667;51.232;17.110;2023-07-20T08:27:35;3.20;;;2.90;;
15132;SDS011;7667;51.232;17.110;2023-07-20T08:30:04;3.77;;;2.97;;
15132;SDS011;7667;51.232;17.110;2023-07-20T08:32:33;3.13;;;2.83;;
15132;SDS011;7667;51.232;17.110;2023-07-20T08:35:01;3.20;;;2.80;;
15132;SDS011;7667;51.232;17.110;2023-07-20T08:37:28;3.57;;;2.23;;
15132;SDS011;7667;51.232;17.110;2023-07-20T08:39:56;4.67;;;2.10;;
15132;SDS011;7667;51.232;17.110;2023-07-20T08:42:23;4.07;;;1.97;;
15132;SDS011;7667;51.232;17.110;2023-07-20T08:44:52;2.60;;;2.10;;
15132;SDS011;7667;51.232;17.110;2023-07-20T08:47:21;3.53;;;2.10;;
15132;SDS011;7667;51.232;17.110;2023-07-20T08:49:50;2.30;;;2.00;;
15132;SDS011;7667;51.232;17.110;2023-07-20T08:52:19;2.70;;;1.90;;
15132;SDS011;7667;51.232;17.110;2023-07-20T08:54:46;1.90;;;1.70;;
15132;SDS011;7667;51.232;17.110;2023-07-20T08:57:14;2.23;;;1.60;;
15132;SDS011;7667;51.232;17.110;2023-07-20T08:59:43;2.10;;;1.70;;
15132;SDS011;7667;51.232;17.110;2023-07-20T09:02:12;2.63;;;1.90;;
15132;SDS011;7667;51.232;17.110;2023-07-20T09:04:45;1.93;;;1.53;;
15132;SDS011;7667;51.232;17.110;2023-07-20T09:07:13;1.93;;;1.53;;
15132;SDS011;7667;51.232;17.110;2023-07-20T09:09:41;2.23;;;1.50;;
15132;SDS011;7667;51.232;17.110;2023-07-20T09:12:13;1.73;;;1.27;;
15132;SDS011;7667;51.232;17.110;2023-07-20T09:14:43;1.90;;;1.70;;
15132;SDS011;7667;51.232;17.110;2023-07-20T09:17:14;4.43;;;1.60;;
15132;SDS011;7667;51.232;17.110;2023-07-20T09:19:47;2.30;;;2.10;;
15132;SDS011;7667;51.232;17.110;2023-07-20T09:22:15;2.37;;;2.17;;
15132;SDS011;7667;51.232;17.110;2023-07-20T09:24:47;3.08;;;2.00;;
15132;SDS011;7667;51.232;17.110;2023-07-20T09:27:17;2.30;;;1.90;;
15132;SDS011;7667;51.232;17.110;2023-07-20T09:29:48;2.28;;;1.67;;
15132;SDS011;7667;51.232;17.110;2023-07-20T09:32:18;2.15;;;1.40;;
15132;SDS011;7667;51.232;17.110;2023-07-20T09:34:51;1.60;;;1.23;;
15132;SDS011;7667;51.232;17.110;2023-07-20T09:37:22;1.40;;;1.30;;
15132;SDS011;7667;51.232;17.110;2023-07-20T09:39:53;1.93;;;1.20;;
15132;SDS011;7667;51.232;17.110;2023-07-20T09:42:24;1.67;;;1.27;;
15132;SDS011;7667;51.232;17.110;2023-07-20T09:44:56;1.60;;;1.27;;
15132;SDS011;7667;51.232;17.110;2023-07-20T09:47:24;1.37;;;1.23;;
15132;SDS011;7667;51.232;17.110;2023-07-20T09:49:57;1.92;;;1.60;;
15132;SDS011;7667;51.232;17.110;2023-07-20T09:52:32;3.03;;;1.50;;
15132;SDS011;7667;51.232;17.110;2023-07-20T09:55:05;1.70;;;1.60;;
15132;SDS011;7667;51.232;17.110;2023-07-20T09:57:36;2.03;;;1.50;;
15132;SDS011;7667;51.232;17.110;2023-07-20T10:00:05;2.70;;;1.70;;
15132;SDS011;7667;51.232;17.110;2023-07-20T10:02:46;1.65;;;1.30;;
15132;SDS011;7667;51.232;17.110;2023-07-20T10:05:15;1.75;;;1.30;;
15132;SDS011;7667;51.232;17.110;2023-07-20T10:07:46;1.30;;;1.13;;
15132;SDS011;7667;51.232;17.110;2023-07-20T10:10:18;1.40;;;1.30;;
15132;SDS011;7667;51.232;17.110;2023-07-20T10:12:47;1.60;;;1.20;;
15132;SDS011;7667;51.232;17.110;2023-07-20T10:15:20;2.92;;;1.27;;
15132;SDS011;7667;51.232;17.110;2023-07-20T10:20:51;1.50;;;1.23;;
15132;SDS011;7667;51.232;17.110;2023-07-20T10:23:23;1.88;;;1.17;;
15132;SDS011;7667;51.232;17.110;2023-07-20T10:25:51;2.33;;;1.10;;
15132;SDS011;7667;51.232;17.110;2023-07-20T10:28:19;1.88;;;1.30;;
15132;SDS011;7667;51.232;17.110;2023-07-20T10:30:47;1.40;;;1.30;;
15132;SDS011;7667;51.232;17.110;2023-07-20T10:33:16;1.30;;;1.10;;
15132;SDS011;7667;51.232;17.110;2023-07-20T10:35:56;1.38;;;1.27;;
15132;SDS011;7667;51.232;17.110;2023-07-20T10:38:38;1.60;;;1.50;;
15132;SDS011;7667;51.232;17.110;2023-07-20T10:43:48;2.75;;;1.20;;
15132;SDS011;7667;51.232;17.110;2023-07-20T10:46:33;1.80;;;1.13;;
15132;SDS011;7667;51.232;17.110;2023-07-20T10:49:03;1.45;;;1.20;;
15132;SDS011;7667;51.232;17.110;2023-07-20T10:51:42;1.13;;;1.00;;
15132;SDS011;7667;51.232;17.110;2023-07-20T10:56:49;2.03;;;1.10;;
15132;SDS011;7667;51.232;17.110;2023-07-20T10:59:36;1.30;;;1.20;;
15132;SDS011;7667;51.232;17.110;2023-07-20T11:02:06;1.40;;;1.08;;
15132;SDS011;7667;51.232;17.110;2023-07-20T11:04:39;0.95;;;0.93;;
15132;SDS011;7667;51.232;17.110;2023-07-20T11:07:10;1.45;;;1.00;;
15132;SDS011;7667;51.232;17.110;2023-07-20T11:10:14;2.75;;;1.05;;
15132;SDS011;7667;51.232;17.110;2023-07-20T11:18:26;2.17;;;1.20;;
15132;SDS011;7667;51.232;17.110;2023-07-20T11:20:55;2.17;;;1.20;;
15132;SDS011;7667;51.232;17.110;2023-07-20T11:23:23;2.30;;;1.47;;
15132;SDS011;7667;51.232;17.110;2023-07-20T11:25:50;3.77;;;1.50;;
15132;SDS011;7667;51.232;17.110;2023-07-20T11:28:18;2.30;;;1.57;;
15132;SDS011;7667;51.232;17.110;2023-07-20T11:30:49;1.70;;;1.40;;
15132;SDS011;7667;51.232;17.110;2023-07-20T11:33:21;2.70;;;1.30;;
15132;SDS011;7667;51.232;17.110;2023-07-20T11:35:49;1.97;;;1.43;;
15132;SDS011;7667;51.232;17.110;2023-07-20T11:38:17;1.50;;;1.00;;
15132;SDS011;7667;51.232;17.110;2023-07-20T11:40:46;1.03;;;0.80;;
15132;SDS011;7667;51.232;17.110;2023-07-20T11:43:14;1.20;;;1.10;;
15132;SDS011;7667;51.232;17.110;2023-07-20T11:45:45;1.20;;;0.87;;
15132;SDS011;7667;51.232;17.110;2023-07-20T11:48:16;0.90;;;0.90;;
15132;SDS011;7667;51.232;17.110;2023-07-20T11:50:44;0.90;;;0.80;;
15132;SDS011;7667;51.232;17.110;2023-07-20T11:53:12;1.07;;;0.93;;
15132;SDS011;7667;51.232;17.110;2023-07-20T11:55:42;1.83;;;1.10;;
15132;SDS011;7667;51.232;17.110;2023-07-20T11:58:10;2.73;;;1.00;;
15132;SDS011;7667;51.232;17.110;2023-07-20T12:00:38;1.70;;;1.00;;
15132;SDS011;7667;51.232;17.110;2023-07-20T12:03:06;1.10;;;1.00;;
15132;SDS011;7667;51.232;17.110;2023-07-20T12:05:38;1.23;;;1.00;;
15132;SDS011;7667;51.232;17.110;2023-07-20T12:08:26;0.97;;;0.90;;
15132;SDS011;7667;51.232;17.110;2023-07-20T12:10:54;1.73;;;1.20;;
15132;SDS011;7667;51.232;17.110;2023-07-20T12:13:22;1.93;;;1.30;;
15132;SDS011;7667;51.232;17.110;2023-07-20T12:15:49;1.60;;;1.47;;
15132;SDS011;7667;51.232;17.110;2023-07-20T12:18:22;2.80;;;1.60;;
15132;SDS011;7667;51.232;17.110;2023-07-20T12:20:58;1.52;;;1.42;;
15132;SDS011;7667;51.232;17.110;2023-07-20T12:23:26;1.67;;;1.52;;
15132;SDS011;7667;51.232;17.110;2023-07-20T12:26:02;1.50;;;1.40;;
15132;SDS011;7667;51.232;17.110;2023-07-20T12:28:30;1.73;;;1.60;;
15132;SDS011;7667;51.232;17.110;2023-07-20T12:30:58;1.52;;;1.42;;
15132;SDS011;7667;51.232;17.110;2023-07-20T12:33:26;1.30;;;1.20;;
15132;SDS011;7667;51.232;17.110;2023-07-20T12:35:54;1.70;;;1.50;;
15132;SDS011;7667;51.232;17.110;2023-07-20T12:38:22;2.07;;;1.63;;
15132;SDS011;7667;51.232;17.110;2023-07-20T12:40:50;1.70;;;1.60;;
15132;SDS011;7667;51.232;17.110;2023-07-20T12:43:18;2.33;;;2.10;;
15132;SDS011;7667;51.232;17.110;2023-07-20T12:45:46;2.27;;;2.00;;
15132;SDS011;7667;51.232;17.110;2023-07-20T12:48:14;2.50;;;2.30;;
15132;SDS011;7667;51.232;17.110;2023-07-20T12:50:41;2.43;;;2.10;;
15132;SDS011;7667;51.232;17.110;2023-07-20T12:53:09;2.77;;;2.43;;
15132;SDS011;7667;51.232;17.110;2023-07-20T12:55:37;2.30;;;2.10;;
15132;SDS011;7667;51.232;17.110;2023-07-20T12:58:08;4.17;;;2.20;;
15132;SDS011;7667;51.232;17.110;2023-07-20T13:00:36;2.40;;;2.20;;
15132;SDS011;7667;51.232;17.110;2023-07-20T13:03:04;2.42;;;1.90;;
15132;SDS011;7667;51.232;17.110;2023-07-20T13:05:35;1.70;;;1.60;;
15132;SDS011;7667;51.232;17.110;2023-07-20T13:08:06;1.40;;;1.20;;
15132;SDS011;7667;51.232;17.110;2023-07-20T13:10:36;1.90;;;1.40;;
15132;SDS011;7667;51.232;17.110;2023-07-20T13:13:07;4.15;;;1.30;;
15132;SDS011;7667;51.232;17.110;2023-07-20T13:15:42;1.25;;;1.15;;
15132;SDS011;7667;51.232;17.110;2023-07-20T13:18:11;1.77;;;1.30;;
15132;SDS011;7667;51.232;17.110;2023-07-20T13:20:39;1.58;;;1.13;;
15132;SDS011;7667;51.232;17.110;2023-07-20T13:23:07;1.30;;;1.20;;
15132;SDS011;7667;51.232;17.110;2023-07-20T13:25:35;1.33;;;1.23;;
15132;SDS011;7667;51.232;17.110;2023-07-20T13:28:03;2.08;;;1.20;;
15132;SDS011;7667;51.232;17.110;2023-07-20T13:30:31;2.08;;;1.30;;
15132;SDS011;7667;51.232;17.110;2023-07-20T13:33:00;1.40;;;1.20;;
15132;SDS011;7667;51.232;17.110;2023-07-20T13:35:32;1.73;;;1.20;;
15132;SDS011;7667;51.232;17.110;2023-07-20T13:38:02;1.20;;;1.10;;
15132;SDS011;7667;51.232;17.110;2023-07-20T13:40:30;1.20;;;1.00;;
15132;SDS011;7667;51.232;17.110;2023-07-20T13:42:58;1.52;;;1.40;;
15132;SDS011;7667;51.232;17.110;2023-07-20T13:45:26;1.23;;;1.10;;
15132;SDS011;7667;51.232;17.110;2023-07-20T13:47:53;1.20;;;1.10;;
15132;SDS011;7667;51.232;17.110;2023-07-20T13:50:21;1.17;;;1.00;;
15132;SDS011;7667;51.232;17.110;2023-07-20T13:53:06;1.30;;;1.20;;
15132;SDS011;7667;51.232;17.110;2023-07-20T13:55:36;1.77;;;1.30;;
15132;SDS011;7667;51.232;17.110;2023-07-20T13:58:08;2.42;;;1.48;;
15132;SDS011;7667;51.232;17.110;2023-07-20T14:00:38;1.48;;;1.38;;
15132;SDS011;7667;51.232;17.110;2023-07-20T14:03:07;1.20;;;1.10;;
15132;SDS011;7667;51.232;17.110;2023-07-20T14:05:39;1.85;;;1.30;;
15132;SDS011;7667;51.232;17.110;2023-07-20T14:08:09;2.05;;;1.30;;
15132;SDS011;7667;51.232;17.110;2023-07-20T14:10:37;1.50;;;1.40;;
15132;SDS011;7667;51.232;17.110;2023-07-20T14:13:07;1.40;;;1.30;;
15132;SDS011;7667;51.232;17.110;2023-07-20T14:15:36;1.30;;;1.20;;
15132;SDS011;7667;51.232;17.110;2023-07-20T14:18:05;1.17;;;1.10;;
15132;SDS011;7667;51.232;17.110;2023-07-20T14:20:33;1.30;;;1.20;;
15132;SDS011;7667;51.232;17.110;2023-07-20T14:23:00;1.30;;;1.20;;
15132;SDS011;7667;51.232;17.110;2023-07-20T14:25:28;1.40;;;1.30;;
15132;SDS011;7667;51.232;17.110;2023-07-20T14:27:56;1.40;;;1.30;;
15132;SDS011;7667;51.232;17.110;2023-07-20T14:30:23;1.30;;;1.20;;
15132;SDS011;7667;51.232;17.110;2023-07-20T14:32:51;1.30;;;1.20;;
15132;SDS011;7667;51.232;17.110;2023-07-20T14:35:19;1.30;;;1.20;;
15132;SDS011;7667;51.232;17.110;2023-07-20T14:37:47;1.60;;;1.50;;
15132;SDS011;7667;51.232;17.110;2023-07-20T14:40:15;1.30;;;1.20;;
15132;SDS011;7667;51.232;17.110;2023-07-20T14:42:42;1.45;;;1.30;;
15132;SDS011;7667;51.232;17.110;2023-07-20T14:45:10;1.67;;;1.30;;
15132;SDS011;7667;51.232;17.110;2023-07-20T14:47:38;1.65;;;1.20;;
15132;SDS011;7667;51.232;17.110;2023-07-20T14:50:06;1.20;;;1.10;;
15132;SDS011;7667;51.232;17.110;2023-07-20T14:52:34;1.10;;;1.10;;
15132;SDS011;7667;51.232;17.110;2023-07-20T14:55:02;1.75;;;1.10;;
15132;SDS011;7667;51.232;17.110;2023-07-20T14:57:30;1.85;;;1.25;;
15132;SDS011;7667;51.232;17.110;2023-07-20T14:59:58;1.10;;;1.10;;
15132;SDS011;7667;51.232;17.110;2023-07-20T15:02:25;1.33;;;1.23;;
15132;SDS011;7667;51.232;17.110;2023-07-20T15:04:53;1.52;;;1.20;;
15132;SDS011;7667;51.232;17.110;2023-07-20T15:07:22;1.77;;;1.30;;
15132;SDS011;7667;51.232;17.110;2023-07-20T15:09:50;1.75;;;1.13;;
15132;SDS011;7667;51.232;17.110;2023-07-20T15:12:17;1.77;;;0.90;;
15132;SDS011;7667;51.232;17.110;2023-07-20T15:14:49;1.60;;;1.20;;
15132;SDS011;7667;51.232;17.110;2023-07-20T15:17:34;1.10;;;1.10;;
15132;SDS011;7667;51.232;17.110;2023-07-20T15:20:04;1.52;;;1.20;;
15132;SDS011;7667;51.232;17.110;2023-07-20T15:22:36;1.95;;;1.33;;